sensor_id;sensor_type;location;lat;lon;timestamp;P1;durP1;ratioP1;P2;durP2;ratioP2
78740;SDS011;68062;48.726;9.370;2023-04-15T00:00:08;7.83;;;4.50;;
78740;SDS011;68062;48.726;9.370;2023-04-15T00:02:38;6.67;;;4.90;;
78740;SDS011;68062;48.726;9.370;2023-04-15T00:05:07;11.83;;;5.60;;
78740;SDS011;68062;48.726;9.370;2023-04-15T00:07:34;7.03;;;4.10;;
78740;SDS011;68062;48.726;9.370;2023-04-15T00:10:01;6.47;;;5.73;;
78740;SDS011;68062;48.726;9.370;2023-04-15T00:12:28;11.20;;;5.53;;
78740;SDS011;68062;48.726;9.370;2023-04-15T00:14:55;7.47;;;5.37;;
78740;SDS011;68062;48.726;9.370;2023-04-15T00:17:23;9.10;;;5.37;;
78740;SDS011;68062;48.726;9.370;2023-04-15T00:19:50;7.87;;;5.83;;
78740;SDS011;68062;48.726;9.370;2023-04-15T00:22:18;8.47;;;5.20;;
78740;SDS011;68062;48.726;9.370;2023-04-15T00:24:45;8.20;;;5.60;;
78740;SDS011;68062;48.726;9.370;2023-04-15T00:27:13;8.80;;;5.00;;
78740;SDS011;68062;48.726;9.370;2023-04-15T00:29:39;11.10;;;5.60;;
78740;SDS011;68062;48.726;9.370;2023-04-15T00:32:07;9.20;;;5.60;;
78740;SDS011;68062;48.726;9.370;2023-04-15T00:34:34;7.10;;;4.43;;
78740;SDS011;68062;48.726;9.370;2023-04-15T00:37:00;10.13;;;6.07;;
78740;SDS011;68062;48.726;9.370;2023-04-15T00:39:29;9.90;;;5.10;;
78740;SDS011;68062;48.726;9.370;2023-04-15T00:41:55;8.23;;;5.43;;
78740;SDS011;68062;48.726;9.370;2023-04-15T00:44:22;5.20;;;4.90;;
78740;SDS011;68062;48.726;9.370;2023-04-15T00:46:50;6.00;;;4.80;;
78740;SDS011;68062;48.726;9.370;2023-04-15T00:49:17;7.97;;;6.17;;
78740;SDS011;68062;48.726;9.370;2023-04-15T00:51:43;9.40;;;5.60;;
78740;SDS011;68062;48.726;9.370;2023-04-15T00:54:10;9.73;;;5.83;;
78740;SDS011;68062;48.726;9.370;2023-04-15T00:56:38;6.27;;;5.17;;
78740;SDS011;68062;48.726;9.370;2023-04-15T00:59:06;9.00;;;6.27;;
78740;SDS011;68062;48.726;9.370;2023-04-15T01:01:34;5.97;;;4.90;;
78740;SDS011;68062;48.726;9.370;2023-04-15T01:04:02;11.60;;;6.43;;
78740;SDS011;68062;48.726;9.370;2023-04-15T01:06:29;9.07;;;5.37;;
78740;SDS011;68062;48.726;9.370;2023-04-15T01:08:57;7.93;;;4.43;;
78740;SDS011;68062;48.726;9.370;2023-04-15T01:11:24;10.20;;;5.10;;
78740;SDS011;68062;48.726;9.370;2023-04-15T01:13:55;8.60;;;5.00;;
78740;SDS011;68062;48.726;9.370;2023-04-15T01:16:24;8.30;;;5.97;;
78740;SDS011;68062;48.726;9.370;2023-04-15T01:18:51;7.23;;;5.20;;
78740;SDS011;68062;48.726;9.370;2023-04-15T01:21:18;10.57;;;5.43;;
78740;SDS011;68062;48.726;9.370;2023-04-15T01:23:46;8.63;;;5.63;;
78740;SDS011;68062;48.726;9.370;2023-04-15T01:26:14;7.50;;;5.33;;
78740;SDS011;68062;48.726;9.370;2023-04-15T01:28:44;11.73;;;5.70;;
78740;SDS011;68062;48.726;9.370;2023-04-15T01:31:11;8.80;;;5.60;;
78740;SDS011;68062;48.726;9.370;2023-04-15T01:33:41;11.97;;;5.47;;
78740;SDS011;68062;48.726;9.370;2023-04-15T01:36:09;5.97;;;4.40;;
78740;SDS011;68062;48.726;9.370;2023-04-15T01:38:37;8.40;;;5.30;;
78740;SDS011;68062;48.726;9.370;2023-04-15T01:41:04;10.90;;;5.13;;
78740;SDS011;68062;48.726;9.370;2023-04-15T01:43:33;9.10;;;5.27;;
78740;SDS011;68062;48.726;9.370;2023-04-15T01:46:00;8.53;;;5.10;;
78740;SDS011;68062;48.726;9.370;2023-04-15T01:48:27;12.30;;;5.07;;
78740;SDS011;68062;48.726;9.370;2023-04-15T01:50:55;9.70;;;4.87;;
78740;SDS011;68062;48.726;9.370;2023-04-15T01:53:22;7.53;;;4.80;;
78740;SDS011;68062;48.726;9.370;2023-04-15T01:55:49;8.07;;;5.57;;
78740;SDS011;68062;48.726;9.370;2023-04-15T01:58:16;7.40;;;5.10;;
78740;SDS011;68062;48.726;9.370;2023-04-15T02:00:44;5.93;;;5.07;;
78740;SDS011;68062;48.726;9.370;2023-04-15T02:03:11;9.77;;;5.40;;
78740;SDS011;68062;48.726;9.370;2023-04-15T02:05:37;12.33;;;5.40;;
78740;SDS011;68062;48.726;9.370;2023-04-15T02:08:04;7.30;;;5.30;;
78740;SDS011;68062;48.726;9.370;2023-04-15T02:10:31;8.73;;;6.07;;
78740;SDS011;68062;48.726;9.370;2023-04-15T02:12:58;5.63;;;5.33;;
78740;SDS011;68062;48.726;9.370;2023-04-15T02:15:27;10.07;;;6.27;;
78740;SDS011;68062;48.726;9.370;2023-04-15T02:17:55;6.30;;;5.20;;
78740;SDS011;68062;48.726;9.370;2023-04-15T02:20:22;7.80;;;4.97;;
78740;SDS011;68062;48.726;9.370;2023-04-15T02:22:49;7.77;;;5.80;;
78740;SDS011;68062;48.726;9.370;2023-04-15T02:25:16;9.00;;;5.50;;
78740;SDS011;68062;48.726;9.370;2023-04-15T02:27:44;8.60;;;6.30;;
78740;SDS011;68062;48.726;9.370;2023-04-15T02:30:11;6.40;;;4.70;;
78740;SDS011;68062;48.726;9.370;2023-04-15T02:32:39;8.10;;;4.97;;
78740;SDS011;68062;48.726;9.370;2023-04-15T02:35:09;8.40;;;5.00;;
78740;SDS011;68062;48.726;9.370;2023-04-15T02:37:36;7.00;;;4.93;;
78740;SDS011;68062;48.726;9.370;2023-04-15T02:40:09;7.00;;;5.40;;
78740;SDS011;68062;48.726;9.370;2023-04-15T02:42:37;6.53;;;4.57;;
78740;SDS011;68062;48.726;9.370;2023-04-15T02:45:07;6.30;;;5.13;;
78740;SDS011;68062;48.726;9.370;2023-04-15T02:47:34;8.10;;;4.73;;
78740;SDS011;68062;48.726;9.370;2023-04-15T02:50:03;7.67;;;5.60;;
78740;SDS011;68062;48.726;9.370;2023-04-15T02:52:32;6.30;;;4.73;;
78740;SDS011;68062;48.726;9.370;2023-04-15T02:54:59;6.20;;;4.90;;
78740;SDS011;68062;48.726;9.370;2023-04-15T02:57:28;5.57;;;4.50;;
78740;SDS011;68062;48.726;9.370;2023-04-15T02:59:58;5.23;;;4.30;;
78740;SDS011;68062;48.726;9.370;2023-04-15T03:02:25;7.30;;;5.13;;
78740;SDS011;68062;48.726;9.370;2023-04-15T03:04:51;4.57;;;4.27;;
78740;SDS011;68062;48.726;9.370;2023-04-15T03:07:18;9.20;;;5.53;;
78740;SDS011;68062;48.726;9.370;2023-04-15T03:09:47;6.93;;;4.77;;
78740;SDS011;68062;48.726;9.370;2023-04-15T03:12:13;8.17;;;4.97;;
78740;SDS011;68062;48.726;9.370;2023-04-15T03:14:40;10.57;;;5.10;;
78740;SDS011;68062;48.726;9.370;2023-04-15T03:17:07;8.10;;;5.83;;
78740;SDS011;68062;48.726;9.370;2023-04-15T03:19:33;6.10;;;5.50;;
78740;SDS011;68062;48.726;9.370;2023-04-15T03:22:01;9.03;;;5.83;;
78740;SDS011;68062;48.726;9.370;2023-04-15T03:24:28;10.40;;;5.40;;
78740;SDS011;68062;48.726;9.370;2023-04-15T03:26:57;6.87;;;5.23;;
78740;SDS011;68062;48.726;9.370;2023-04-15T03:29:25;7.03;;;5.50;;
78740;SDS011;68062;48.726;9.370;2023-04-15T03:31:52;6.07;;;4.70;;
78740;SDS011;68062;48.726;9.370;2023-04-15T03:34:19;6.90;;;5.10;;
78740;SDS011;68062;48.726;9.370;2023-04-15T03:36:45;9.10;;;5.40;;
78740;SDS011;68062;48.726;9.370;2023-04-15T03:39:12;9.30;;;5.40;;
78740;SDS011;68062;48.726;9.370;2023-04-15T03:41:38;16.90;;;6.27;;
78740;SDS011;68062;48.726;9.370;2023-04-15T03:44:07;6.40;;;5.87;;
78740;SDS011;68062;48.726;9.370;2023-04-15T03:46:33;15.20;;;6.30;;
78740;SDS011;68062;48.726;9.370;2023-04-15T03:49:00;10.27;;;5.97;;
78740;SDS011;68062;48.726;9.370;2023-04-15T03:51:27;7.97;;;5.40;;
78740;SDS011;68062;48.726;9.370;2023-04-15T03:53:54;8.27;;;5.53;;
78740;SDS011;68062;48.726;9.370;2023-04-15T03:56:21;7.60;;;5.53;;
78740;SDS011;68062;48.726;9.370;2023-04-15T03:58:48;6.07;;;4.90;;
78740;SDS011;68062;48.726;9.370;2023-04-15T04:01:16;8.33;;;5.60;;
78740;SDS011;68062;48.726;9.370;2023-04-15T04:03:44;10.23;;;5.47;;
78740;SDS011;68062;48.726;9.370;2023-04-15T04:06:11;7.90;;;6.53;;
78740;SDS011;68062;48.726;9.370;2023-04-15T04:08:38;8.63;;;6.20;;
78740;SDS011;68062;48.726;9.370;2023-04-15T04:11:05;10.23;;;5.80;;
78740;SDS011;68062;48.726;9.370;2023-04-15T04:13:32;9.03;;;5.40;;
78740;SDS011;68062;48.726;9.370;2023-04-15T04:15:58;11.37;;;6.13;;
78740;SDS011;68062;48.726;9.370;2023-04-15T04:18:27;9.47;;;5.37;;
78740;SDS011;68062;48.726;9.370;2023-04-15T04:20:54;10.70;;;5.93;;
78740;SDS011;68062;48.726;9.370;2023-04-15T04:23:20;8.27;;;6.53;;
78740;SDS011;68062;48.726;9.370;2023-04-15T04:25:48;10.70;;;5.90;;
78740;SDS011;68062;48.726;9.370;2023-04-15T04:28:14;7.47;;;5.60;;
78740;SDS011;68062;48.726;9.370;2023-04-15T04:30:41;12.47;;;6.00;;
78740;SDS011;68062;48.726;9.370;2023-04-15T04:33:08;9.90;;;6.73;;
78740;SDS011;68062;48.726;9.370;2023-04-15T04:35:36;7.07;;;5.00;;
78740;SDS011;68062;48.726;9.370;2023-04-15T04:38:02;10.00;;;5.80;;
78740;SDS011;68062;48.726;9.370;2023-04-15T04:40:29;10.93;;;5.90;;
78740;SDS011;68062;48.726;9.370;2023-04-15T04:42:56;7.13;;;5.30;;
78740;SDS011;68062;48.726;9.370;2023-04-15T04:45:22;7.70;;;5.10;;
78740;SDS011;68062;48.726;9.370;2023-04-15T04:47:49;7.27;;;5.13;;
78740;SDS011;68062;48.726;9.370;2023-04-15T04:50:16;8.70;;;5.43;;
78740;SDS011;68062;48.726;9.370;2023-04-15T04:52:43;9.27;;;6.17;;
78740;SDS011;68062;48.726;9.370;2023-04-15T04:55:10;6.67;;;5.33;;
78740;SDS011;68062;48.726;9.370;2023-04-15T04:57:37;8.80;;;5.70;;
78740;SDS011;68062;48.726;9.370;2023-04-15T05:00:05;6.87;;;5.20;;
78740;SDS011;68062;48.726;9.370;2023-04-15T05:02:32;9.20;;;5.80;;
78740;SDS011;68062;48.726;9.370;2023-04-15T05:04:59;10.50;;;6.90;;
78740;SDS011;68062;48.726;9.370;2023-04-15T05:07:26;9.73;;;5.53;;
78740;SDS011;68062;48.726;9.370;2023-04-15T05:09:54;6.37;;;5.23;;
78740;SDS011;68062;48.726;9.370;2023-04-15T05:12:20;9.63;;;5.80;;
78740;SDS011;68062;48.726;9.370;2023-04-15T05:14:47;7.80;;;6.07;;
78740;SDS011;68062;48.726;9.370;2023-04-15T05:17:14;10.30;;;5.33;;
78740;SDS011;68062;48.726;9.370;2023-04-15T05:19:40;7.03;;;4.93;;
78740;SDS011;68062;48.726;9.370;2023-04-15T05:22:07;16.40;;;6.07;;
78740;SDS011;68062;48.726;9.370;2023-04-15T05:24:33;9.23;;;5.63;;
78740;SDS011;68062;48.726;9.370;2023-04-15T05:27:01;9.83;;;5.37;;
78740;SDS011;68062;48.726;9.370;2023-04-15T05:29:28;6.57;;;5.20;;
78740;SDS011;68062;48.726;9.370;2023-04-15T05:31:54;7.30;;;5.70;;
78740;SDS011;68062;48.726;9.370;2023-04-15T05:34:21;10.07;;;5.93;;
78740;SDS011;68062;48.726;9.370;2023-04-15T05:36:48;7.97;;;5.40;;
78740;SDS011;68062;48.726;9.370;2023-04-15T05:39:14;6.73;;;6.03;;
78740;SDS011;68062;48.726;9.370;2023-04-15T05:41:41;5.83;;;5.53;;
78740;SDS011;68062;48.726;9.370;2023-04-15T05:44:09;8.23;;;5.00;;
78740;SDS011;68062;48.726;9.370;2023-04-15T05:46:36;9.70;;;5.23;;
78740;SDS011;68062;48.726;9.370;2023-04-15T05:49:02;8.20;;;5.60;;
78740;SDS011;68062;48.726;9.370;2023-04-15T05:51:29;9.80;;;5.23;;
78740;SDS011;68062;48.726;9.370;2023-04-15T05:53:56;11.13;;;6.07;;
78740;SDS011;68062;48.726;9.370;2023-04-15T05:56:22;9.03;;;6.00;;
78740;SDS011;68062;48.726;9.370;2023-04-15T05:58:50;7.43;;;5.20;;
78740;SDS011;68062;48.726;9.370;2023-04-15T06:01:18;5.60;;;5.10;;
78740;SDS011;68062;48.726;9.370;2023-04-15T06:03:45;8.33;;;4.57;;
78740;SDS011;68062;48.726;9.370;2023-04-15T06:06:12;5.47;;;4.20;;
78740;SDS011;68062;48.726;9.370;2023-04-15T06:08:39;5.70;;;4.60;;
78740;SDS011;68062;48.726;9.370;2023-04-15T06:11:06;6.50;;;5.50;;
78740;SDS011;68062;48.726;9.370;2023-04-15T06:13:33;5.33;;;4.70;;
78740;SDS011;68062;48.726;9.370;2023-04-15T06:16:00;6.57;;;4.60;;
78740;SDS011;68062;48.726;9.370;2023-04-15T06:18:27;4.77;;;4.33;;
78740;SDS011;68062;48.726;9.370;2023-04-15T06:20:54;7.47;;;4.57;;
78740;SDS011;68062;48.726;9.370;2023-04-15T06:23:21;5.27;;;4.00;;
78740;SDS011;68062;48.726;9.370;2023-04-15T06:25:48;7.27;;;4.37;;
78740;SDS011;68062;48.726;9.370;2023-04-15T06:28:15;5.40;;;4.37;;
78740;SDS011;68062;48.726;9.370;2023-04-15T06:30:41;10.10;;;4.30;;
78740;SDS011;68062;48.726;9.370;2023-04-15T06:33:08;8.67;;;4.87;;
78740;SDS011;68062;48.726;9.370;2023-04-15T06:35:36;6.23;;;4.30;;
78740;SDS011;68062;48.726;9.370;2023-04-15T06:38:03;8.20;;;4.33;;
78740;SDS011;68062;48.726;9.370;2023-04-15T06:40:30;5.10;;;3.83;;
78740;SDS011;68062;48.726;9.370;2023-04-15T06:42:56;4.33;;;4.10;;
78740;SDS011;68062;48.726;9.370;2023-04-15T06:45:23;6.37;;;3.80;;
78740;SDS011;68062;48.726;9.370;2023-04-15T06:47:49;6.37;;;4.27;;
78740;SDS011;68062;48.726;9.370;2023-04-15T06:50:16;6.60;;;5.00;;
78740;SDS011;68062;48.726;9.370;2023-04-15T06:52:44;5.67;;;4.17;;
78740;SDS011;68062;48.726;9.370;2023-04-15T06:55:11;7.27;;;4.80;;
78740;SDS011;68062;48.726;9.370;2023-04-15T06:57:38;6.67;;;4.07;;
78740;SDS011;68062;48.726;9.370;2023-04-15T07:00:06;6.00;;;4.43;;
78740;SDS011;68062;48.726;9.370;2023-04-15T07:02:35;4.70;;;4.00;;
78740;SDS011;68062;48.726;9.370;2023-04-15T07:05:01;6.50;;;4.27;;
78740;SDS011;68062;48.726;9.370;2023-04-15T07:07:28;6.77;;;4.20;;
78740;SDS011;68062;48.726;9.370;2023-04-15T07:09:56;6.37;;;4.60;;
78740;SDS011;68062;48.726;9.370;2023-04-15T07:12:23;6.53;;;4.77;;
78740;SDS011;68062;48.726;9.370;2023-04-15T07:14:49;7.63;;;4.53;;
78740;SDS011;68062;48.726;9.370;2023-04-15T07:17:16;12.07;;;5.07;;
78740;SDS011;68062;48.726;9.370;2023-04-15T07:19:43;7.20;;;5.77;;
78740;SDS011;68062;48.726;9.370;2023-04-15T07:22:09;7.77;;;4.93;;
78740;SDS011;68062;48.726;9.370;2023-04-15T07:24:36;6.97;;;4.63;;
78740;SDS011;68062;48.726;9.370;2023-04-15T07:27:04;6.00;;;4.20;;
78740;SDS011;68062;48.726;9.370;2023-04-15T07:29:30;7.43;;;5.30;;
78740;SDS011;68062;48.726;9.370;2023-04-15T07:31:57;6.10;;;5.47;;
78740;SDS011;68062;48.726;9.370;2023-04-15T07:34:24;7.17;;;5.10;;
78740;SDS011;68062;48.726;9.370;2023-04-15T07:36:50;5.63;;;4.90;;
78740;SDS011;68062;48.726;9.370;2023-04-15T07:39:17;5.43;;;4.77;;
78740;SDS011;68062;48.726;9.370;2023-04-15T07:41:44;7.40;;;4.77;;
78740;SDS011;68062;48.726;9.370;2023-04-15T07:44:12;6.80;;;4.80;;
78740;SDS011;68062;48.726;9.370;2023-04-15T07:46:38;8.20;;;4.63;;
78740;SDS011;68062;48.726;9.370;2023-04-15T07:49:05;7.30;;;4.90;;
78740;SDS011;68062;48.726;9.370;2023-04-15T07:51:32;10.70;;;4.50;;
78740;SDS011;68062;48.726;9.370;2023-04-15T07:53:58;7.00;;;4.60;;
78740;SDS011;68062;48.726;9.370;2023-04-15T07:56:25;7.83;;;4.37;;
78740;SDS011;68062;48.726;9.370;2023-04-15T07:58:51;4.87;;;4.03;;
78740;SDS011;68062;48.726;9.370;2023-04-15T08:01:19;9.60;;;4.63;;
78740;SDS011;68062;48.726;9.370;2023-04-15T08:03:47;7.73;;;4.97;;
78740;SDS011;68062;48.726;9.370;2023-04-15T08:06:14;6.10;;;4.60;;
78740;SDS011;68062;48.726;9.370;2023-04-15T08:08:40;8.20;;;4.03;;
78740;SDS011;68062;48.726;9.370;2023-04-15T08:11:07;5.37;;;4.40;;
78740;SDS011;68062;48.726;9.370;2023-04-15T08:13:34;8.23;;;4.47;;
78740;SDS011;68062;48.726;9.370;2023-04-15T08:18:49;7.30;;;4.50;;
78740;SDS011;68062;48.726;9.370;2023-04-15T08:21:17;6.90;;;3.67;;
78740;SDS011;68062;48.726;9.370;2023-04-15T08:23:44;8.23;;;4.20;;
78740;SDS011;68062;48.726;9.370;2023-04-15T08:26:13;7.50;;;5.30;;
78740;SDS011;68062;48.726;9.370;2023-04-15T08:28:40;6.87;;;4.23;;
78740;SDS011;68062;48.726;9.370;2023-04-15T08:31:08;7.03;;;4.47;;
78740;SDS011;68062;48.726;9.370;2023-04-15T08:33:36;6.40;;;4.23;;
78740;SDS011;68062;48.726;9.370;2023-04-15T08:36:03;4.60;;;4.30;;
78740;SDS011;68062;48.726;9.370;2023-04-15T08:38:30;5.57;;;3.87;;
78740;SDS011;68062;48.726;9.370;2023-04-15T08:40:57;5.60;;;3.97;;
78740;SDS011;68062;48.726;9.370;2023-04-15T08:43:26;4.20;;;3.90;;
78740;SDS011;68062;48.726;9.370;2023-04-15T08:45:55;5.33;;;4.10;;
78740;SDS011;68062;48.726;9.370;2023-04-15T08:48:24;7.30;;;3.70;;
78740;SDS011;68062;48.726;9.370;2023-04-15T08:50:56;5.87;;;4.13;;
78740;SDS011;68062;48.726;9.370;2023-04-15T08:53:23;6.90;;;4.00;;
78740;SDS011;68062;48.726;9.370;2023-04-15T08:55:50;8.33;;;4.00;;
78740;SDS011;68062;48.726;9.370;2023-04-15T08:58:18;5.90;;;3.87;;
78740;SDS011;68062;48.726;9.370;2023-04-15T09:00:45;5.03;;;3.83;;
78740;SDS011;68062;48.726;9.370;2023-04-15T09:03:12;5.17;;;3.50;;
78740;SDS011;68062;48.726;9.370;2023-04-15T09:05:40;7.73;;;3.77;;
78740;SDS011;68062;48.726;9.370;2023-04-15T09:08:08;5.70;;;3.50;;
78740;SDS011;68062;48.726;9.370;2023-04-15T09:10:35;3.70;;;3.20;;
78740;SDS011;68062;48.726;9.370;2023-04-15T09:13:02;4.70;;;3.60;;
78740;SDS011;68062;48.726;9.370;2023-04-15T09:15:29;5.30;;;4.10;;
78740;SDS011;68062;48.726;9.370;2023-04-15T09:17:58;6.27;;;3.80;;
78740;SDS011;68062;48.726;9.370;2023-04-15T09:20:25;3.97;;;3.77;;
78740;SDS011;68062;48.726;9.370;2023-04-15T09:22:51;4.10;;;3.70;;
78740;SDS011;68062;48.726;9.370;2023-04-15T09:25:26;5.60;;;4.40;;
78740;SDS011;68062;48.726;9.370;2023-04-15T09:27:55;6.20;;;4.57;;
78740;SDS011;68062;48.726;9.370;2023-04-15T09:30:22;4.63;;;3.00;;
78740;SDS011;68062;48.726;9.370;2023-04-15T09:32:50;4.87;;;3.53;;
78740;SDS011;68062;48.726;9.370;2023-04-15T09:35:18;5.93;;;5.63;;
78740;SDS011;68062;48.726;9.370;2023-04-15T09:37:46;4.07;;;3.20;;
78740;SDS011;68062;48.726;9.370;2023-04-15T09:40:13;3.40;;;3.20;;
78740;SDS011;68062;48.726;9.370;2023-04-15T09:42:54;4.93;;;3.10;;
78740;SDS011;68062;48.726;9.370;2023-04-15T09:45:22;2.53;;;2.37;;
78740;SDS011;68062;48.726;9.370;2023-04-15T09:47:49;3.27;;;2.70;;
78740;SDS011;68062;48.726;9.370;2023-04-15T09:53:07;2.80;;;2.17;;
78740;SDS011;68062;48.726;9.370;2023-04-15T09:55:35;5.23;;;3.03;;
78740;SDS011;68062;48.726;9.370;2023-04-15T09:58:03;3.07;;;2.53;;
78740;SDS011;68062;48.726;9.370;2023-04-15T10:00:34;3.20;;;2.47;;
78740;SDS011;68062;48.726;9.370;2023-04-15T10:03:02;5.10;;;2.80;;
78740;SDS011;68062;48.726;9.370;2023-04-15T10:05:31;3.90;;;3.37;;
78740;SDS011;68062;48.726;9.370;2023-04-15T10:07:59;5.70;;;2.80;;
78740;SDS011;68062;48.726;9.370;2023-04-15T10:10:26;3.00;;;2.80;;
78740;SDS011;68062;48.726;9.370;2023-04-15T10:12:53;5.50;;;3.07;;
78740;SDS011;68062;48.726;9.370;2023-04-15T10:15:22;2.73;;;2.50;;
78740;SDS011;68062;48.726;9.370;2023-04-15T10:17:51;6.87;;;3.23;;
78740;SDS011;68062;48.726;9.370;2023-04-15T10:20:19;5.53;;;3.80;;
78740;SDS011;68062;48.726;9.370;2023-04-15T10:22:48;7.40;;;2.90;;
78740;SDS011;68062;48.726;9.370;2023-04-15T10:25:16;3.97;;;2.97;;
78740;SDS011;68062;48.726;9.370;2023-04-15T10:27:45;6.20;;;3.07;;
78740;SDS011;68062;48.726;9.370;2023-04-15T10:30:13;4.63;;;3.13;;
78740;SDS011;68062;48.726;9.370;2023-04-15T10:32:42;5.00;;;2.90;;
78740;SDS011;68062;48.726;9.370;2023-04-15T10:35:11;3.50;;;2.80;;
78740;SDS011;68062;48.726;9.370;2023-04-15T10:37:39;5.43;;;3.10;;
78740;SDS011;68062;48.726;9.370;2023-04-15T10:42:56;3.90;;;2.80;;
78740;SDS011;68062;48.726;9.370;2023-04-15T10:45:25;3.80;;;2.90;;
78740;SDS011;68062;48.726;9.370;2023-04-15T10:47:57;3.93;;;2.93;;
78740;SDS011;68062;48.726;9.370;2023-04-15T10:50:26;3.60;;;2.87;;
78740;SDS011;68062;48.726;9.370;2023-04-15T10:52:56;5.00;;;2.93;;
78740;SDS011;68062;48.726;9.370;2023-04-15T10:55:23;4.30;;;3.43;;
78740;SDS011;68062;48.726;9.370;2023-04-15T10:57:51;13.03;;;3.50;;
78740;SDS011;68062;48.726;9.370;2023-04-15T11:00:23;3.20;;;3.00;;
78740;SDS011;68062;48.726;9.370;2023-04-15T11:02:52;3.70;;;3.10;;
78740;SDS011;68062;48.726;9.370;2023-04-15T11:05:22;4.10;;;3.40;;
78740;SDS011;68062;48.726;9.370;2023-04-15T11:08:15;4.27;;;3.10;;
78740;SDS011;68062;48.726;9.370;2023-04-15T11:10:52;3.77;;;3.10;;
78740;SDS011;68062;48.726;9.370;2023-04-15T11:13:19;4.60;;;3.53;;
78740;SDS011;68062;48.726;9.370;2023-04-15T11:15:48;5.53;;;3.17;;
78740;SDS011;68062;48.726;9.370;2023-04-15T11:18:16;6.10;;;3.60;;
78740;SDS011;68062;48.726;9.370;2023-04-15T11:20:46;6.50;;;3.60;;
78740;SDS011;68062;48.726;9.370;2023-04-15T11:23:16;5.37;;;3.67;;
78740;SDS011;68062;48.726;9.370;2023-04-15T11:25:43;5.17;;;3.50;;
78740;SDS011;68062;48.726;9.370;2023-04-15T11:28:11;9.00;;;4.50;;
78740;SDS011;68062;48.726;9.370;2023-04-15T11:30:39;5.83;;;3.70;;
78740;SDS011;68062;48.726;9.370;2023-04-15T11:33:06;4.60;;;3.43;;
78740;SDS011;68062;48.726;9.370;2023-04-15T11:35:34;4.40;;;3.47;;
78740;SDS011;68062;48.726;9.370;2023-04-15T11:38:03;5.90;;;3.97;;
78740;SDS011;68062;48.726;9.370;2023-04-15T11:40:31;3.93;;;3.80;;
78740;SDS011;68062;48.726;9.370;2023-04-15T11:43:03;7.53;;;3.73;;
78740;SDS011;68062;48.726;9.370;2023-04-15T11:45:30;7.40;;;3.43;;
78740;SDS011;68062;48.726;9.370;2023-04-15T11:48:03;3.80;;;3.00;;
78740;SDS011;68062;48.726;9.370;2023-04-15T11:50:32;7.47;;;4.80;;
78740;SDS011;68062;48.726;9.370;2023-04-15T11:53:00;3.90;;;3.73;;
78740;SDS011;68062;48.726;9.370;2023-04-15T11:55:29;4.10;;;3.90;;
78740;SDS011;68062;48.726;9.370;2023-04-15T11:58:07;7.17;;;3.63;;
78740;SDS011;68062;48.726;9.370;2023-04-15T12:00:35;5.63;;;3.97;;
78740;SDS011;68062;48.726;9.370;2023-04-15T12:03:10;6.10;;;4.33;;
78740;SDS011;68062;48.726;9.370;2023-04-15T12:11:14;6.27;;;4.33;;
78740;SDS011;68062;48.726;9.370;2023-04-15T12:13:42;5.10;;;4.03;;
78740;SDS011;68062;48.726;9.370;2023-04-15T12:16:09;5.97;;;3.90;;
78740;SDS011;68062;48.726;9.370;2023-04-15T12:22:23;6.03;;;4.33;;
78740;SDS011;68062;48.726;9.370;2023-04-15T12:24:53;6.57;;;4.33;;
78740;SDS011;68062;48.726;9.370;2023-04-15T12:27:24;5.27;;;4.07;;
78740;SDS011;68062;48.726;9.370;2023-04-15T12:29:56;6.07;;;4.03;;
78740;SDS011;68062;48.726;9.370;2023-04-15T12:32:29;5.13;;;3.40;;
78740;SDS011;68062;48.726;9.370;2023-04-15T12:35:01;5.93;;;4.20;;
78740;SDS011;68062;48.726;9.370;2023-04-15T12:37:27;16.57;;;9.20;;
78740;SDS011;68062;48.726;9.370;2023-04-15T12:39:54;7.40;;;6.03;;
78740;SDS011;68062;48.726;9.370;2023-04-15T12:42:21;6.90;;;6.50;;
78740;SDS011;68062;48.726;9.370;2023-04-15T12:44:49;4.60;;;4.30;;
78740;SDS011;68062;48.726;9.370;2023-04-15T12:47:15;3.27;;;3.13;;
78740;SDS011;68062;48.726;9.370;2023-04-15T12:49:42;4.53;;;3.57;;
78740;SDS011;68062;48.726;9.370;2023-04-15T12:52:08;3.50;;;3.30;;
78740;SDS011;68062;48.726;9.370;2023-04-15T12:54:35;4.30;;;3.73;;
78740;SDS011;68062;48.726;9.370;2023-04-15T12:57:02;4.93;;;3.80;;
78740;SDS011;68062;48.726;9.370;2023-04-15T12:59:30;5.33;;;4.27;;
78740;SDS011;68062;48.726;9.370;2023-04-15T13:01:57;5.57;;;4.27;;
78740;SDS011;68062;48.726;9.370;2023-04-15T13:04:25;4.33;;;3.90;;
78740;SDS011;68062;48.726;9.370;2023-04-15T13:06:55;3.73;;;3.37;;
78740;SDS011;68062;48.726;9.370;2023-04-15T13:09:21;4.57;;;3.40;;
78740;SDS011;68062;48.726;9.370;2023-04-15T13:11:48;3.10;;;2.80;;
78740;SDS011;68062;48.726;9.370;2023-04-15T13:14:15;4.57;;;3.50;;
78740;SDS011;68062;48.726;9.370;2023-04-15T13:16:43;3.13;;;2.93;;
78740;SDS011;68062;48.726;9.370;2023-04-15T13:19:10;3.80;;;2.70;;
78740;SDS011;68062;48.726;9.370;2023-04-15T13:21:37;2.57;;;1.93;;
78740;SDS011;68062;48.726;9.370;2023-04-15T13:24:04;6.77;;;3.00;;
78740;SDS011;68062;48.726;9.370;2023-04-15T13:26:31;4.30;;;2.93;;
78740;SDS011;68062;48.726;9.370;2023-04-15T13:28:58;3.70;;;2.60;;
78740;SDS011;68062;48.726;9.370;2023-04-15T13:31:25;2.80;;;2.37;;
78740;SDS011;68062;48.726;9.370;2023-04-15T13:33:52;4.03;;;2.80;;
78740;SDS011;68062;48.726;9.370;2023-04-15T13:36:20;5.70;;;3.23;;
78740;SDS011;68062;48.726;9.370;2023-04-15T13:38:46;3.93;;;2.83;;
78740;SDS011;68062;48.726;9.370;2023-04-15T13:41:13;3.37;;;2.23;;
78740;SDS011;68062;48.726;9.370;2023-04-15T13:43:40;3.57;;;2.40;;
78740;SDS011;68062;48.726;9.370;2023-04-15T13:46:07;4.13;;;2.70;;
78740;SDS011;68062;48.726;9.370;2023-04-15T13:48:33;1.80;;;1.73;;
78740;SDS011;68062;48.726;9.370;2023-04-15T13:51:01;2.50;;;2.37;;
78740;SDS011;68062;48.726;9.370;2023-04-15T13:53:29;3.60;;;2.20;;
78740;SDS011;68062;48.726;9.370;2023-04-15T13:55:56;3.00;;;2.57;;
78740;SDS011;68062;48.726;9.370;2023-04-15T13:58:23;2.77;;;2.57;;
78740;SDS011;68062;48.726;9.370;2023-04-15T14:00:49;2.47;;;2.30;;
78740;SDS011;68062;48.726;9.370;2023-04-15T14:03:16;2.90;;;2.20;;
78740;SDS011;68062;48.726;9.370;2023-04-15T14:05:43;2.77;;;2.30;;
78740;SDS011;68062;48.726;9.370;2023-04-15T14:08:11;2.97;;;2.43;;
78740;SDS011;68062;48.726;9.370;2023-04-15T14:10:38;2.87;;;2.30;;
78740;SDS011;68062;48.726;9.370;2023-04-15T14:13:05;1.83;;;1.50;;
78740;SDS011;68062;48.726;9.370;2023-04-15T14:15:32;2.10;;;1.20;;
78740;SDS011;68062;48.726;9.370;2023-04-15T14:17:59;1.67;;;1.20;;
78740;SDS011;68062;48.726;9.370;2023-04-15T14:20:25;1.50;;;0.87;;
78740;SDS011;68062;48.726;9.370;2023-04-15T14:22:52;2.40;;;1.50;;
78740;SDS011;68062;48.726;9.370;2023-04-15T14:25:20;1.63;;;1.10;;
78740;SDS011;68062;48.726;9.370;2023-04-15T14:27:47;3.93;;;2.13;;
78740;SDS011;68062;48.726;9.370;2023-04-15T14:30:14;2.73;;;1.47;;
78740;SDS011;68062;48.726;9.370;2023-04-15T14:32:41;2.70;;;1.90;;
78740;SDS011;68062;48.726;9.370;2023-04-15T14:35:08;2.07;;;1.23;;
78740;SDS011;68062;48.726;9.370;2023-04-15T14:37:34;1.83;;;1.30;;
78740;SDS011;68062;48.726;9.370;2023-04-15T14:40:02;2.00;;;1.90;;
78740;SDS011;68062;48.726;9.370;2023-04-15T14:42:30;1.97;;;1.20;;
78740;SDS011;68062;48.726;9.370;2023-04-15T14:44:56;1.80;;;1.23;;
78740;SDS011;68062;48.726;9.370;2023-04-15T14:47:23;2.90;;;1.33;;
78740;SDS011;68062;48.726;9.370;2023-04-15T14:49:49;3.90;;;2.50;;
78740;SDS011;68062;48.726;9.370;2023-04-15T14:52:17;1.63;;;1.07;;
78740;SDS011;68062;48.726;9.370;2023-04-15T14:54:44;1.70;;;1.30;;
78740;SDS011;68062;48.726;9.370;2023-04-15T14:57:11;1.70;;;1.27;;
78740;SDS011;68062;48.726;9.370;2023-04-15T14:59:39;1.57;;;1.20;;
78740;SDS011;68062;48.726;9.370;2023-04-15T15:02:06;1.73;;;1.30;;
78740;SDS011;68062;48.726;9.370;2023-04-15T15:04:33;3.30;;;2.07;;